Coal Hollow, Illinois
Current Conditions -  °F | °C
As of 12:55 PM on Friday 31 Oct 2014 (Local Time) from KVYS Reporting Station
Scattered Clouds Scattered Clouds  
Wind Chill: 32°   Ceiling: Unl
Heat Index: 42°   Visibility: 10mi
Dew Point: 23°   Wind: 28mph
Humidity: 46%   Direction: 360°N
Pressure: 30.26"   Gusts: 36mph
Location:  41.3609°N, 89.3981°W
Report Text: KVYS 311755Z AUTO 36024G31KT 10SM SCT041 06/M05 A3026 RMK AO2 T00561051 10057 20018
Loading
Personal Weather Stations






























Interactive Weather Map
Tropical Storm Tracking
New forecast layout! Learn more

10-Day Weather Forecast

Advertisements
Track Severe Weather on mobile